EST,Max TemperatureF,Mean TemperatureF,Min TemperatureF,Max Dew PointF,MeanDew PointF,Min DewpointF,Max Humidity, Mean Humidity, Min Humidity, Max Sea Level PressureIn, Mean Sea Level PressureIn, Min Sea Level PressureIn, Max VisibilityMiles, Mean VisibilityMiles, Min VisibilityMiles, Max Wind SpeedMPH, Mean Wind SpeedMPH, Max Gust SpeedMPH,PrecipitationIn, CloudCover, Events, WindDirDegrees
2013-2-1,23,20,16,18,7,0,84,65,45,30.05,29.78,29.54,10,9,2,15,10,24,0.00,7,,289
2013-2-2,19,14,9,16,7,-2,92,72,51,30.14,30.05,29.99,10,8,2,12,5,24,0.00,5,,252
2013-2-3,25,16,7,12,8,3,91,69,46,30.00,29.85,29.71,10,10,9,8,4,,0.00,3,,128
2013-2-4,23,18,12,14,4,-4,80,57,34,29.87,29.77,29.69,10,10,6,21,9,30,0.00,6,,283
2013-2-5,23,14,5,12,4,-2,83,61,39,29.98,29.90,29.85,10,10,10,10,3,,0.00,2,,355
2013-2-6,30,21,12,21,10,-6,84,61,37,30.30,30.01,29.84,10,10,2,14,7,21,0.00,5,,293
2013-2-7,18,13,7,7,-1,-6,76,60,43,30.52,30.41,30.30,10,10,10,8,4,,0.00,4,,350
2013-2-8,25,22,18,18,13,0,91,66,41,30.35,30.08,29.80,10,5,1,21,15,33,0.01,8,,127
2013-2-9,19,11,3,18,2,-8,92,69,46,30.29,30.06,29.81,10,6,1,21,12,31,0.00,4,,328
2013-2-10,27,11,-6,7,0,-9,100,67,33,30.45,30.35,30.24,10,10,10,10,3,,0.00,0,,112
2013-2-11,39,28,16,34,21,1,92,60,28,30.24,29.85,29.61,10,10,1,20,12,27,0.00,7,,128
2013-2-12,39,35,30,28,25,21,78,69,59,29.85,29.70,29.62,10,10,9,20,10,29,0.00,8,,269
2013-2-13,36,32,27,23,20,16,75,63,51,29.83,29.78,29.72,10,10,10,9,5,,0.00,6,,250
2013-2-14,37,28,19,21,18,16,84,66,47,29.93,29.85,29.71,10,10,10,8,5,,0.00,6,,116
2013-2-15,45,37,28,28,23,18,92,66,40,29.96,29.90,29.85,10,10,3,17,7,29,0.00,6,,213
2013-2-16,32,26,19,27,16,1,92,67,41,29.97,29.91,29.83,10,8,2,13,6,,0.00,7,,334
2013-2-17,19,14,9,5,1,-4,73,59,45,29.82,29.69,29.61,10,10,10,17,12,28,0.00,6,,316
2013-2-18,27,16,5,5,-3,-8,69,47,25,30.11,30.02,29.81,10,10,10,15,8,20,0.00,1,,295
2013-2-19,39,26,12,32,15,0,96,64,32,30.12,29.84,29.57,10,9,1,27,10,35,0.22,4,,145
2013-2-20,32,27,21,30,19,12,100,83,65,29.75,29.66,29.57,10,7,1,13,8,25,0.01,8,,271
2013-2-21,21,17,12,16,8,1,92,72,51,30.34,29.98,29.76,10,10,8,14,8,25,0.00,8,,307
2013-2-22,34,23,12,19,17,12,96,74,51,30.39,30.30,30.21,10,10,5,10,4,,0.00,4,,102
2013-2-23,34,32,30,28,25,19,92,74,56,30.21,30.05,29.88,10,9,1,21,14,27,0.00,8,,130
2013-2-24,36,32,28,32,28,27,100,88,75,29.93,29.81,29.74,10,8,2,12,6,17,0.03,8,,197
2013-2-25,36,32,28,30,28,27,100,88,75,30.22,30.10,29.94,10,7,3,6,2,,0.00,8,,338
2013-2-26,39,34,28,30,27,23,100,77,54,30.29,30.22,30.09,10,7,0,16,6,22,0.00,6,,135
2013-2-27,37,34,30,32,29,25,92,81,69,30.07,29.79,29.60,10,8,2,25,14,37,0.25,7,,128
2013-2-28,39,36,32,32,29,27,89,80,70,29.61,29.57,29.55,10,10,10,9,5,,0.00,8,,154